sensor_id;sensor_type;location;lat;lon;timestamp;temperature;humidity
51476;DHT22;37554;50.362;7.568;2022-12-18T00:01:32;7.90;40.90
51476;DHT22;37554;50.362;7.568;2022-12-18T00:03:59;7.90;40.90
51476;DHT22;37554;50.362;7.568;2022-12-18T00:06:27;7.80;40.90
51476;DHT22;37554;50.362;7.568;2022-12-18T00:08:54;7.80;41.00
51476;DHT22;37554;50.362;7.568;2022-12-18T00:11:22;7.80;41.00
51476;DHT22;37554;50.362;7.568;2022-12-18T00:13:49;7.80;41.00
51476;DHT22;37554;50.362;7.568;2022-12-18T00:16:18;7.80;41.00
51476;DHT22;37554;50.362;7.568;2022-12-18T00:18:46;7.80;40.90
51476;DHT22;37554;50.362;7.568;2022-12-18T00:21:13;7.80;41.00
51476;DHT22;37554;50.362;7.568;2022-12-18T00:23:39;7.70;40.90
51476;DHT22;37554;50.362;7.568;2022-12-18T00:26:09;7.70;40.90
51476;DHT22;37554;50.362;7.568;2022-12-18T00:28:35;7.70;40.80
51476;DHT22;37554;50.362;7.568;2022-12-18T00:31:05;7.70;40.90
51476;DHT22;37554;50.362;7.568;2022-12-18T00:33:31;7.60;40.80
51476;DHT22;37554;50.362;7.568;2022-12-18T00:36:09;7.70;40.90
51476;DHT22;37554;50.362;7.568;2022-12-18T00:38:35;7.60;40.90
51476;DHT22;37554;50.362;7.568;2022-12-18T00:41:01;7.60;40.80
51476;DHT22;37554;50.362;7.568;2022-12-18T00:43:27;7.60;40.80
51476;DHT22;37554;50.362;7.568;2022-12-18T00:45:52;7.60;40.80
51476;DHT22;37554;50.362;7.568;2022-12-18T00:48:18;7.60;40.70
51476;DHT22;37554;50.362;7.568;2022-12-18T00:50:44;7.50;40.70
51476;DHT22;37554;50.362;7.568;2022-12-18T00:53:10;7.50;40.70
51476;DHT22;37554;50.362;7.568;2022-12-18T00:55:38;7.50;40.70
51476;DHT22;37554;50.362;7.568;2022-12-18T00:58:04;7.50;40.70
51476;DHT22;37554;50.362;7.568;2022-12-18T01:00:30;7.50;40.60
51476;DHT22;37554;50.362;7.568;2022-12-18T01:02:55;7.50;40.50
51476;DHT22;37554;50.362;7.568;2022-12-18T01:05:21;7.50;40.50
51476;DHT22;37554;50.362;7.568;2022-12-18T01:07:47;7.50;40.50
51476;DHT22;37554;50.362;7.568;2022-12-18T01:10:13;7.50;40.50
51476;DHT22;37554;50.362;7.568;2022-12-18T01:12:39;7.50;40.50
51476;DHT22;37554;50.362;7.568;2022-12-18T01:15:05;7.40;40.50
51476;DHT22;37554;50.362;7.568;2022-12-18T01:17:32;7.40;41.10
51476;DHT22;37554;50.362;7.568;2022-12-18T01:19:57;7.40;40.50
51476;DHT22;37554;50.362;7.568;2022-12-18T01:22:23;7.40;40.40
51476;DHT22;37554;50.362;7.568;2022-12-18T01:24:49;7.40;40.50
51476;DHT22;37554;50.362;7.568;2022-12-18T01:27:14;7.30;41.20
51476;DHT22;37554;50.362;7.568;2022-12-18T01:29:40;7.40;40.60
51476;DHT22;37554;50.362;7.568;2022-12-18T01:32:06;7.40;40.50
51476;DHT22;37554;50.362;7.568;2022-12-18T01:34:31;7.30;40.50
51476;DHT22;37554;50.362;7.568;2022-12-18T01:36:57;7.30;40.50
51476;DHT22;37554;50.362;7.568;2022-12-18T01:39:23;7.30;40.50
51476;DHT22;37554;50.362;7.568;2022-12-18T01:41:48;7.20;40.40
51476;DHT22;37554;50.362;7.568;2022-12-18T01:45:02;7.20;40.50
51476;DHT22;37554;50.362;7.568;2022-12-18T01:47:33;7.20;40.20
51476;DHT22;37554;50.362;7.568;2022-12-18T01:50:04;7.20;40.60
51476;DHT22;37554;50.362;7.568;2022-12-18T01:52:31;7.20;40.50
51476;DHT22;37554;50.362;7.568;2022-12-18T01:54:59;7.10;40.50
51476;DHT22;37554;50.362;7.568;2022-12-18T01:57:26;7.20;40.40
51476;DHT22;37554;50.362;7.568;2022-12-18T01:59:53;7.20;40.30
51476;DHT22;37554;50.362;7.568;2022-12-18T02:02:22;7.20;40.30
51476;DHT22;37554;50.362;7.568;2022-12-18T02:04:47;7.10;40.40
51476;DHT22;37554;50.362;7.568;2022-12-18T02:10:23;7.10;40.30
51476;DHT22;37554;50.362;7.568;2022-12-18T02:15:33;7.00;40.30
51476;DHT22;37554;50.362;7.568;2022-12-18T02:18:10;7.00;40.30
51476;DHT22;37554;50.362;7.568;2022-12-18T02:20:44;7.00;40.30
51476;DHT22;37554;50.362;7.568;2022-12-18T02:26:07;7.00;40.10
51476;DHT22;37554;50.362;7.568;2022-12-18T02:28:56;7.00;40.30
51476;DHT22;37554;50.362;7.568;2022-12-18T02:31:29;6.90;40.20
51476;DHT22;37554;50.362;7.568;2022-12-18T02:33:59;6.90;40.20
51476;DHT22;37554;50.362;7.568;2022-12-18T02:36:27;6.90;40.30
51476;DHT22;37554;50.362;7.568;2022-12-18T02:38:54;6.90;40.30
51476;DHT22;37554;50.362;7.568;2022-12-18T02:41:21;6.90;40.30
51476;DHT22;37554;50.362;7.568;2022-12-18T02:43:55;6.90;40.30
51476;DHT22;37554;50.362;7.568;2022-12-18T02:46:31;6.90;40.20
51476;DHT22;37554;50.362;7.568;2022-12-18T02:54:36;6.80;40.20
51476;DHT22;37554;50.362;7.568;2022-12-18T02:57:24;6.80;40.20
51476;DHT22;37554;50.362;7.568;2022-12-18T03:00:00;6.80;40.80
51476;DHT22;37554;50.362;7.568;2022-12-18T03:02:51;6.80;40.20
51476;DHT22;37554;50.362;7.568;2022-12-18T03:05:27;6.80;40.10
51476;DHT22;37554;50.362;7.568;2022-12-18T03:07:59;6.80;40.00
51476;DHT22;37554;50.362;7.568;2022-12-18T03:10:33;6.80;40.10
51476;DHT22;37554;50.362;7.568;2022-12-18T03:13:04;6.80;40.00
51476;DHT22;37554;50.362;7.568;2022-12-18T03:15:41;6.80;40.00
51476;DHT22;37554;50.362;7.568;2022-12-18T03:18:12;6.70;40.00
51476;DHT22;37554;50.362;7.568;2022-12-18T03:20:40;6.70;40.00
51476;DHT22;37554;50.362;7.568;2022-12-18T03:23:13;6.70;40.00
51476;DHT22;37554;50.362;7.568;2022-12-18T03:25:42;6.70;40.00
51476;DHT22;37554;50.362;7.568;2022-12-18T03:28:16;6.70;40.00
51476;DHT22;37554;50.362;7.568;2022-12-18T03:30:44;6.70;40.00
51476;DHT22;37554;50.362;7.568;2022-12-18T03:33:23;6.70;40.00
51476;DHT22;37554;50.362;7.568;2022-12-18T03:35:50;6.70;40.00
51476;DHT22;37554;50.362;7.568;2022-12-18T03:38:16;6.60;39.90
51476;DHT22;37554;50.362;7.568;2022-12-18T03:40:49;6.60;39.90
51476;DHT22;37554;50.362;7.568;2022-12-18T03:45:55;6.60;40.00
51476;DHT22;37554;50.362;7.568;2022-12-18T03:48:51;6.60;39.90
51476;DHT22;37554;50.362;7.568;2022-12-18T03:51:40;6.60;39.90
51476;DHT22;37554;50.362;7.568;2022-12-18T03:54:09;6.60;40.00
51476;DHT22;37554;50.362;7.568;2022-12-18T03:56:40;6.60;40.00
51476;DHT22;37554;50.362;7.568;2022-12-18T03:59:08;6.50;40.50
51476;DHT22;37554;50.362;7.568;2022-12-18T04:01:41;6.50;39.90
51476;DHT22;37554;50.362;7.568;2022-12-18T04:04:08;6.50;39.90
51476;DHT22;37554;50.362;7.568;2022-12-18T04:06:36;6.50;39.90
51476;DHT22;37554;50.362;7.568;2022-12-18T04:09:03;6.50;39.90
51476;DHT22;37554;50.362;7.568;2022-12-18T04:11:29;6.50;39.90
51476;DHT22;37554;50.362;7.568;2022-12-18T04:13:56;6.50;39.90
51476;DHT22;37554;50.362;7.568;2022-12-18T04:16:23;6.50;39.90
51476;DHT22;37554;50.362;7.568;2022-12-18T04:18:49;6.50;39.80
51476;DHT22;37554;50.362;7.568;2022-12-18T04:21:14;6.50;39.80
51476;DHT22;37554;50.362;7.568;2022-12-18T04:23:40;6.50;39.80
51476;DHT22;37554;50.362;7.568;2022-12-18T04:26:09;6.50;39.80
51476;DHT22;37554;50.362;7.568;2022-12-18T04:28:34;6.40;39.70
51476;DHT22;37554;50.362;7.568;2022-12-18T04:31:00;6.40;39.70
51476;DHT22;37554;50.362;7.568;2022-12-18T04:33:26;6.40;39.70
51476;DHT22;37554;50.362;7.568;2022-12-18T04:35:51;6.40;39.80
51476;DHT22;37554;50.362;7.568;2022-12-18T04:38:17;6.40;39.80
51476;DHT22;37554;50.362;7.568;2022-12-18T04:40:43;6.40;39.80
51476;DHT22;37554;50.362;7.568;2022-12-18T04:43:08;6.40;39.80
51476;DHT22;37554;50.362;7.568;2022-12-18T04:45:34;6.40;39.80
51476;DHT22;37554;50.362;7.568;2022-12-18T04:48:01;6.40;39.80
51476;DHT22;37554;50.362;7.568;2022-12-18T04:50:28;6.40;39.90
51476;DHT22;37554;50.362;7.568;2022-12-18T04:52:54;6.30;39.70
51476;DHT22;37554;50.362;7.568;2022-12-18T04:55:20;6.30;39.80
51476;DHT22;37554;50.362;7.568;2022-12-18T04:57:45;6.30;39.70
51476;DHT22;37554;50.362;7.568;2022-12-18T05:00:12;6.30;39.70
51476;DHT22;37554;50.362;7.568;2022-12-18T05:02:38;6.30;39.70
51476;DHT22;37554;50.362;7.568;2022-12-18T05:05:04;6.30;39.70
51476;DHT22;37554;50.362;7.568;2022-12-18T05:07:29;6.30;39.80
51476;DHT22;37554;50.362;7.568;2022-12-18T05:09:55;6.20;39.80
51476;DHT22;37554;50.362;7.568;2022-12-18T05:12:24;6.20;39.80
51476;DHT22;37554;50.362;7.568;2022-12-18T05:14:50;6.20;39.90
51476;DHT22;37554;50.362;7.568;2022-12-18T05:17:16;6.10;39.90
51476;DHT22;37554;50.362;7.568;2022-12-18T05:19:41;6.10;39.90
51476;DHT22;37554;50.362;7.568;2022-12-18T05:22:07;6.00;40.00
51476;DHT22;37554;50.362;7.568;2022-12-18T05:24:33;6.00;40.00
51476;DHT22;37554;50.362;7.568;2022-12-18T05:26:58;5.90;40.10
51476;DHT22;37554;50.362;7.568;2022-12-18T05:29:24;5.90;40.20
51476;DHT22;37554;50.362;7.568;2022-12-18T05:31:50;5.90;40.10
51476;DHT22;37554;50.362;7.568;2022-12-18T05:34:16;6.00;40.00
51476;DHT22;37554;50.362;7.568;2022-12-18T05:36:42;6.10;40.10
51476;DHT22;37554;50.362;7.568;2022-12-18T05:39:08;6.20;40.00
51476;DHT22;37554;50.362;7.568;2022-12-18T05:41:34;6.30;40.00
51476;DHT22;37554;50.362;7.568;2022-12-18T05:44:00;6.40;39.90
51476;DHT22;37554;50.362;7.568;2022-12-18T05:46:26;6.50;39.70
51476;DHT22;37554;50.362;7.568;2022-12-18T05:48:52;6.60;39.60
51476;DHT22;37554;50.362;7.568;2022-12-18T05:51:20;6.60;40.00
51476;DHT22;37554;50.362;7.568;2022-12-18T05:53:46;6.70;39.30
51476;DHT22;37554;50.362;7.568;2022-12-18T05:56:20;6.80;39.10
51476;DHT22;37554;50.362;7.568;2022-12-18T05:58:47;6.80;38.90
51476;DHT22;37554;50.362;7.568;2022-12-18T06:01:15;6.90;38.90
51476;DHT22;37554;50.362;7.568;2022-12-18T06:03:41;7.00;38.80
51476;DHT22;37554;50.362;7.568;2022-12-18T06:06:33;7.00;38.70
51476;DHT22;37554;50.362;7.568;2022-12-18T06:08:59;7.10;38.50
51476;DHT22;37554;50.362;7.568;2022-12-18T06:11:27;7.10;38.50
51476;DHT22;37554;50.362;7.568;2022-12-18T06:13:54;7.10;38.40
51476;DHT22;37554;50.362;7.568;2022-12-18T06:16:20;7.20;38.40
51476;DHT22;37554;50.362;7.568;2022-12-18T06:18:46;7.20;38.30
51476;DHT22;37554;50.362;7.568;2022-12-18T06:21:12;7.30;38.40
51476;DHT22;37554;50.362;7.568;2022-12-18T06:23:37;7.30;38.30
51476;DHT22;37554;50.362;7.568;2022-12-18T06:26:08;7.30;38.30
51476;DHT22;37554;50.362;7.568;2022-12-18T06:28:34;7.40;38.30
51476;DHT22;37554;50.362;7.568;2022-12-18T06:31:00;7.40;38.20
51476;DHT22;37554;50.362;7.568;2022-12-18T06:33:29;7.40;38.20
51476;DHT22;37554;50.362;7.568;2022-12-18T06:36:00;7.50;38.20
51476;DHT22;37554;50.362;7.568;2022-12-18T06:38:26;7.50;38.20
51476;DHT22;37554;50.362;7.568;2022-12-18T06:40:52;7.50;38.20
51476;DHT22;37554;50.362;7.568;2022-12-18T06:43:18;7.50;38.10
51476;DHT22;37554;50.362;7.568;2022-12-18T06:45:43;7.50;38.10
51476;DHT22;37554;50.362;7.568;2022-12-18T06:48:09;7.60;38.00
51476;DHT22;37554;50.362;7.568;2022-12-18T06:50:35;7.60;38.00
51476;DHT22;37554;50.362;7.568;2022-12-18T06:53:00;7.60;38.00
51476;DHT22;37554;50.362;7.568;2022-12-18T06:55:26;7.70;38.10
51476;DHT22;37554;50.362;7.568;2022-12-18T06:57:51;7.70;38.10
51476;DHT22;37554;50.362;7.568;2022-12-18T07:00:17;7.70;37.90
51476;DHT22;37554;50.362;7.568;2022-12-18T07:02:43;7.70;37.80
51476;DHT22;37554;50.362;7.568;2022-12-18T07:05:09;7.80;38.50
51476;DHT22;37554;50.362;7.568;2022-12-18T07:07:35;7.80;37.80
51476;DHT22;37554;50.362;7.568;2022-12-18T07:10:01;7.80;37.70
51476;DHT22;37554;50.362;7.568;2022-12-18T07:12:27;7.80;37.70
51476;DHT22;37554;50.362;7.568;2022-12-18T07:14:52;7.80;37.70
51476;DHT22;37554;50.362;7.568;2022-12-18T07:17:18;7.80;37.60
51476;DHT22;37554;50.362;7.568;2022-12-18T07:19:44;7.80;37.60
51476;DHT22;37554;50.362;7.568;2022-12-18T07:22:09;7.80;37.60
51476;DHT22;37554;50.362;7.568;2022-12-18T07:24:35;7.80;37.50
51476;DHT22;37554;50.362;7.568;2022-12-18T07:27:00;7.90;37.50
51476;DHT22;37554;50.362;7.568;2022-12-18T07:29:26;7.90;37.40
51476;DHT22;37554;50.362;7.568;2022-12-18T07:31:52;7.80;37.20
51476;DHT22;37554;50.362;7.568;2022-12-18T07:34:17;7.70;37.10
51476;DHT22;37554;50.362;7.568;2022-12-18T07:36:43;7.70;37.00
51476;DHT22;37554;50.362;7.568;2022-12-18T07:39:11;7.60;37.10
51476;DHT22;37554;50.362;7.568;2022-12-18T07:41:36;7.60;37.30
51476;DHT22;37554;50.362;7.568;2022-12-18T07:44:02;7.70;37.40
51476;DHT22;37554;50.362;7.568;2022-12-18T07:46:28;7.70;37.40
51476;DHT22;37554;50.362;7.568;2022-12-18T07:48:53;7.80;37.50
51476;DHT22;37554;50.362;7.568;2022-12-18T07:51:19;7.80;37.40
51476;DHT22;37554;50.362;7.568;2022-12-18T07:53:44;7.90;37.40
51476;DHT22;37554;50.362;7.568;2022-12-18T07:56:12;7.90;37.30
51476;DHT22;37554;50.362;7.568;2022-12-18T07:58:37;8.00;37.30
51476;DHT22;37554;50.362;7.568;2022-12-18T08:01:12;8.00;37.20
51476;DHT22;37554;50.362;7.568;2022-12-18T08:03:39;8.00;37.10
51476;DHT22;37554;50.362;7.568;2022-12-18T08:06:08;8.10;37.20
51476;DHT22;37554;50.362;7.568;2022-12-18T08:08:34;8.10;37.00
51476;DHT22;37554;50.362;7.568;2022-12-18T08:11:01;8.20;37.10
51476;DHT22;37554;50.362;7.568;2022-12-18T08:13:27;8.20;37.00
51476;DHT22;37554;50.362;7.568;2022-12-18T08:16:06;8.20;36.90
51476;DHT22;37554;50.362;7.568;2022-12-18T08:18:36;8.30;37.00
51476;DHT22;37554;50.362;7.568;2022-12-18T08:23:38;9.50;45.30
51476;DHT22;37554;50.362;7.568;2022-12-18T08:26:05;9.50;44.10
51476;DHT22;37554;50.362;7.568;2022-12-18T08:28:30;9.40;43.70
51476;DHT22;37554;50.362;7.568;2022-12-18T08:30:56;9.30;43.20
51476;DHT22;37554;50.362;7.568;2022-12-18T08:33:22;9.20;42.90
51476;DHT22;37554;50.362;7.568;2022-12-18T08:35:47;9.20;42.60
51476;DHT22;37554;50.362;7.568;2022-12-18T08:38:13;9.20;42.40
51476;DHT22;37554;50.362;7.568;2022-12-18T08:40:38;9.20;42.00
51476;DHT22;37554;50.362;7.568;2022-12-18T08:43:04;9.20;41.70
51476;DHT22;37554;50.362;7.568;2022-12-18T08:45:48;9.20;41.40
51476;DHT22;37554;50.362;7.568;2022-12-18T08:48:14;9.30;41.10
51476;DHT22;37554;50.362;7.568;2022-12-18T08:50:40;9.30;40.60
51476;DHT22;37554;50.362;7.568;2022-12-18T08:53:06;9.40;40.20
51476;DHT22;37554;50.362;7.568;2022-12-18T08:55:32;9.40;40.00
51476;DHT22;37554;50.362;7.568;2022-12-18T08:57:57;9.40;39.50
51476;DHT22;37554;50.362;7.568;2022-12-18T09:00:23;9.50;39.30
51476;DHT22;37554;50.362;7.568;2022-12-18T09:02:48;9.50;39.00
51476;DHT22;37554;50.362;7.568;2022-12-18T09:05:14;9.50;38.80
51476;DHT22;37554;50.362;7.568;2022-12-18T09:07:40;9.60;38.80
51476;DHT22;37554;50.362;7.568;2022-12-18T09:10:06;9.60;38.70
51476;DHT22;37554;50.362;7.568;2022-12-18T09:12:31;9.60;38.60
51476;DHT22;37554;50.362;7.568;2022-12-18T09:14:57;9.60;38.50
51476;DHT22;37554;50.362;7.568;2022-12-18T09:17:23;9.60;38.30
51476;DHT22;37554;50.362;7.568;2022-12-18T09:19:48;9.70;38.20
51476;DHT22;37554;50.362;7.568;2022-12-18T09:22:14;9.70;38.10
51476;DHT22;37554;50.362;7.568;2022-12-18T09:24:40;9.90;37.90
51476;DHT22;37554;50.362;7.568;2022-12-18T09:27:06;10.00;37.50
51476;DHT22;37554;50.362;7.568;2022-12-18T09:29:32;10.20;37.40
51476;DHT22;37554;50.362;7.568;2022-12-18T09:31:57;10.30;37.20
51476;DHT22;37554;50.362;7.568;2022-12-18T09:34:23;10.40;37.00
51476;DHT22;37554;50.362;7.568;2022-12-18T09:36:49;10.40;36.90
51476;DHT22;37554;50.362;7.568;2022-12-18T09:39:15;10.50;36.80
51476;DHT22;37554;50.362;7.568;2022-12-18T09:46:42;10.70;36.60
51476;DHT22;37554;50.362;7.568;2022-12-18T09:49:13;10.80;36.50
51476;DHT22;37554;50.362;7.568;2022-12-18T09:51:47;10.90;36.50
51476;DHT22;37554;50.362;7.568;2022-12-18T09:54:20;11.10;36.20
51476;DHT22;37554;50.362;7.568;2022-12-18T09:56:46;11.30;36.10
51476;DHT22;37554;50.362;7.568;2022-12-18T09:59:25;11.40;36.00
51476;DHT22;37554;50.362;7.568;2022-12-18T10:01:51;11.50;35.80
51476;DHT22;37554;50.362;7.568;2022-12-18T10:04:17;11.60;35.90
51476;DHT22;37554;50.362;7.568;2022-12-18T10:06:49;11.60;35.80
51476;DHT22;37554;50.362;7.568;2022-12-18T10:09:37;11.70;35.90
51476;DHT22;37554;50.362;7.568;2022-12-18T10:17:40;11.70;36.10
51476;DHT22;37554;50.362;7.568;2022-12-18T10:20:33;11.70;36.40
51476;DHT22;37554;50.362;7.568;2022-12-18T10:23:15;11.60;36.70
51476;DHT22;37554;50.362;7.568;2022-12-18T10:26:02;11.60;36.90
51476;DHT22;37554;50.362;7.568;2022-12-18T10:28:30;11.60;37.10
51476;DHT22;37554;50.362;7.568;2022-12-18T10:30:57;11.70;37.20
51476;DHT22;37554;50.362;7.568;2022-12-18T10:33:27;11.70;37.20
51476;DHT22;37554;50.362;7.568;2022-12-18T10:35:54;11.70;37.30
51476;DHT22;37554;50.362;7.568;2022-12-18T10:38:38;11.70;37.30
51476;DHT22;37554;50.362;7.568;2022-12-18T10:41:06;11.80;37.20
51476;DHT22;37554;50.362;7.568;2022-12-18T10:44:20;11.90;37.30
51476;DHT22;37554;50.362;7.568;2022-12-18T10:46:49;12.00;37.10
51476;DHT22;37554;50.362;7.568;2022-12-18T10:49:25;12.10;37.10
51476;DHT22;37554;50.362;7.568;2022-12-18T10:51:52;12.20;36.80
51476;DHT22;37554;50.362;7.568;2022-12-18T10:54:30;12.20;36.90
51476;DHT22;37554;50.362;7.568;2022-12-18T10:57:15;12.30;36.80
51476;DHT22;37554;50.362;7.568;2022-12-18T10:59:54;12.40;36.80
51476;DHT22;37554;50.362;7.568;2022-12-18T11:02:38;12.40;37.60
51476;DHT22;37554;50.362;7.568;2022-12-18T11:07:51;12.50;37.50
51476;DHT22;37554;50.362;7.568;2022-12-18T11:10:21;12.40;37.60
51476;DHT22;37554;50.362;7.568;2022-12-18T11:12:47;12.40;37.70
51476;DHT22;37554;50.362;7.568;2022-12-18T11:15:19;12.40;37.80
51476;DHT22;37554;50.362;7.568;2022-12-18T11:17:48;12.40;37.80
51476;DHT22;37554;50.362;7.568;2022-12-18T11:20:34;12.40;37.80
51476;DHT22;37554;50.362;7.568;2022-12-18T11:23:05;12.50;37.70
51476;DHT22;37554;50.362;7.568;2022-12-18T11:25:32;12.40;37.70
51476;DHT22;37554;50.362;7.568;2022-12-18T11:28:03;12.40;37.80
51476;DHT22;37554;50.362;7.568;2022-12-18T11:30:32;12.40;37.70
51476;DHT22;37554;50.362;7.568;2022-12-18T11:35:55;12.30;37.70
51476;DHT22;37554;50.362;7.568;2022-12-18T11:38:39;12.20;37.70
51476;DHT22;37554;50.362;7.568;2022-12-18T11:41:52;12.20;37.70
51476;DHT22;37554;50.362;7.568;2022-12-18T11:44:31;12.10;37.60
51476;DHT22;37554;50.362;7.568;2022-12-18T11:47:14;12.00;38.00
51476;DHT22;37554;50.362;7.568;2022-12-18T11:49:41;11.90;38.00
51476;DHT22;37554;50.362;7.568;2022-12-18T11:52:25;11.90;38.20
51476;DHT22;37554;50.362;7.568;2022-12-18T11:54:58;11.80;38.20
51476;DHT22;37554;50.362;7.568;2022-12-18T11:57:36;11.80;38.90
51476;DHT22;37554;50.362;7.568;2022-12-18T12:06:07;11.80;38.30
51476;DHT22;37554;50.362;7.568;2022-12-18T12:14:12;11.80;38.70
51476;DHT22;37554;50.362;7.568;2022-12-18T12:22:49;11.70;38.90
51476;DHT22;37554;50.362;7.568;2022-12-18T12:25:37;11.70;39.00
51476;DHT22;37554;50.362;7.568;2022-12-18T12:33:39;11.60;39.30
51476;DHT22;37554;50.362;7.568;2022-12-18T12:39:07;11.50;39.40
51476;DHT22;37554;50.362;7.568;2022-12-18T12:41:35;11.40;39.40
51476;DHT22;37554;50.362;7.568;2022-12-18T12:44:27;11.40;39.60
51476;DHT22;37554;50.362;7.568;2022-12-18T12:46:57;11.30;39.60
51476;DHT22;37554;50.362;7.568;2022-12-18T12:49:27;11.30;39.80
51476;DHT22;37554;50.362;7.568;2022-12-18T12:52:05;11.30;39.80
51476;DHT22;37554;50.362;7.568;2022-12-18T12:54:32;11.20;39.90
51476;DHT22;37554;50.362;7.568;2022-12-18T13:08:06;11.30;40.50
51476;DHT22;37554;50.362;7.568;2022-12-18T13:10:41;11.30;40.50
51476;DHT22;37554;50.362;7.568;2022-12-18T13:15:48;11.30;40.50
51476;DHT22;37554;50.362;7.568;2022-12-18T13:18:16;11.30;40.50
51476;DHT22;37554;50.362;7.568;2022-12-18T13:26:29;11.20;40.70
51476;DHT22;37554;50.362;7.568;2022-12-18T13:28:58;11.10;40.80
51476;DHT22;37554;50.362;7.568;2022-12-18T13:34:25;11.00;41.10
51476;DHT22;37554;50.362;7.568;2022-12-18T13:36:53;11.00;41.30
51476;DHT22;37554;50.362;7.568;2022-12-18T13:39:21;11.00;41.20
51476;DHT22;37554;50.362;7.568;2022-12-18T13:41:50;11.00;41.20
51476;DHT22;37554;50.362;7.568;2022-12-18T13:44:39;11.00;41.20
51476;DHT22;37554;50.362;7.568;2022-12-18T13:47:30;11.00;41.20
51476;DHT22;37554;50.362;7.568;2022-12-18T13:49:57;11.00;41.10
51476;DHT22;37554;50.362;7.568;2022-12-18T13:52:37;11.00;41.10
51476;DHT22;37554;50.362;7.568;2022-12-18T13:55:07;11.00;41.10
51476;DHT22;37554;50.362;7.568;2022-12-18T13:57:38;11.00;41.20
51476;DHT22;37554;50.362;7.568;2022-12-18T14:02:47;11.00;41.10
51476;DHT22;37554;50.362;7.568;2022-12-18T14:05:27;11.00;41.10
51476;DHT22;37554;50.362;7.568;2022-12-18T14:07:54;10.90;41.10
51476;DHT22;37554;50.362;7.568;2022-12-18T14:10:20;10.90;41.20
51476;DHT22;37554;50.362;7.568;2022-12-18T14:12:48;10.90;41.20
51476;DHT22;37554;50.362;7.568;2022-12-18T14:20:57;10.80;41.30
51476;DHT22;37554;50.362;7.568;2022-12-18T14:26:02;11.20;44.80
51476;DHT22;37554;50.362;7.568;2022-12-18T14:28:30;11.20;44.20
51476;DHT22;37554;50.362;7.568;2022-12-18T14:30:56;11.10;44.30
51476;DHT22;37554;50.362;7.568;2022-12-18T14:33:24;11.00;44.30
51476;DHT22;37554;50.362;7.568;2022-12-18T14:35:57;10.90;44.20
51476;DHT22;37554;50.362;7.568;2022-12-18T14:38:34;10.80;44.00
51476;DHT22;37554;50.362;7.568;2022-12-18T14:41:05;10.80;44.10
51476;DHT22;37554;50.362;7.568;2022-12-18T14:43:34;10.70;44.00
51476;DHT22;37554;50.362;7.568;2022-12-18T14:46:00;10.60;43.80
51476;DHT22;37554;50.362;7.568;2022-12-18T14:48:38;10.60;43.70
51476;DHT22;37554;50.362;7.568;2022-12-18T14:51:07;10.50;43.60
51476;DHT22;37554;50.362;7.568;2022-12-18T14:53:45;10.50;43.60
51476;DHT22;37554;50.362;7.568;2022-12-18T14:56:20;10.40;43.50
51476;DHT22;37554;50.362;7.568;2022-12-18T14:58:48;10.40;43.40
51476;DHT22;37554;50.362;7.568;2022-12-18T15:01:25;10.40;43.40
51476;DHT22;37554;50.362;7.568;2022-12-18T15:03:52;10.30;43.20
51476;DHT22;37554;50.362;7.568;2022-12-18T15:06:26;10.30;43.20
51476;DHT22;37554;50.362;7.568;2022-12-18T15:08:53;10.60;45.10
51476;DHT22;37554;50.362;7.568;2022-12-18T15:11:26;10.60;44.90
51476;DHT22;37554;50.362;7.568;2022-12-18T15:13:52;10.60;44.90
51476;DHT22;37554;50.362;7.568;2022-12-18T15:16:18;10.70;45.50
51476;DHT22;37554;50.362;7.568;2022-12-18T15:18:44;10.80;45.60
51476;DHT22;37554;50.362;7.568;2022-12-18T15:21:11;11.10;46.70
51476;DHT22;37554;50.362;7.568;2022-12-18T15:26:12;11.20;46.20
51476;DHT22;37554;50.362;7.568;2022-12-18T15:28:55;11.10;46.00
51476;DHT22;37554;50.362;7.568;2022-12-18T15:31:29;11.10;45.90
51476;DHT22;37554;50.362;7.568;2022-12-18T15:36:23;10.80;45.60
51476;DHT22;37554;50.362;7.568;2022-12-18T15:38:50;10.70;45.60
51476;DHT22;37554;50.362;7.568;2022-12-18T15:41:18;10.60;45.50
51476;DHT22;37554;50.362;7.568;2022-12-18T15:43:45;10.60;45.50
51476;DHT22;37554;50.362;7.568;2022-12-18T15:46:16;10.50;45.40
51476;DHT22;37554;50.362;7.568;2022-12-18T15:48:47;10.40;46.10
51476;DHT22;37554;50.362;7.568;2022-12-18T15:51:16;10.40;45.30
51476;DHT22;37554;50.362;7.568;2022-12-18T15:53:42;10.30;45.20
51476;DHT22;37554;50.362;7.568;2022-12-18T15:56:12;10.20;45.10
51476;DHT22;37554;50.362;7.568;2022-12-18T15:58:57;10.20;45.00
51476;DHT22;37554;50.362;7.568;2022-12-18T16:01:25;10.20;44.90
51476;DHT22;37554;50.362;7.568;2022-12-18T16:03:51;10.10;44.80
51476;DHT22;37554;50.362;7.568;2022-12-18T16:06:16;10.00;44.80
51476;DHT22;37554;50.362;7.568;2022-12-18T16:08:42;9.90;44.70
51476;DHT22;37554;50.362;7.568;2022-12-18T16:11:30;9.90;44.70
51476;DHT22;37554;50.362;7.568;2022-12-18T16:14:20;9.90;44.70
51476;DHT22;37554;50.362;7.568;2022-12-18T16:16:48;10.00;44.50
51476;DHT22;37554;50.362;7.568;2022-12-18T16:19:14;10.20;44.50
51476;DHT22;37554;50.362;7.568;2022-12-18T16:21:40;10.30;44.20
51476;DHT22;37554;50.362;7.568;2022-12-18T16:24:08;10.30;44.00
51476;DHT22;37554;50.362;7.568;2022-12-18T16:26:34;10.40;43.90
51476;DHT22;37554;50.362;7.568;2022-12-18T16:29:00;10.40;43.80
51476;DHT22;37554;50.362;7.568;2022-12-18T16:31:25;10.50;43.80
51476;DHT22;37554;50.362;7.568;2022-12-18T16:34:19;10.50;43.60
51476;DHT22;37554;50.362;7.568;2022-12-18T16:36:50;10.40;43.40
51476;DHT22;37554;50.362;7.568;2022-12-18T16:39:16;10.50;43.30
51476;DHT22;37554;50.362;7.568;2022-12-18T16:41:42;10.40;43.30
51476;DHT22;37554;50.362;7.568;2022-12-18T16:44:08;10.40;43.10
51476;DHT22;37554;50.362;7.568;2022-12-18T16:46:33;10.40;43.10
51476;DHT22;37554;50.362;7.568;2022-12-18T16:48:59;10.30;43.00
51476;DHT22;37554;50.362;7.568;2022-12-18T16:51:26;10.30;43.20
51476;DHT22;37554;50.362;7.568;2022-12-18T16:53:53;10.30;42.90
51476;DHT22;37554;50.362;7.568;2022-12-18T16:56:22;10.20;42.70
51476;DHT22;37554;50.362;7.568;2022-12-18T16:58:53;10.10;42.60
51476;DHT22;37554;50.362;7.568;2022-12-18T17:01:19;10.10;42.70
51476;DHT22;37554;50.362;7.568;2022-12-18T17:03:51;10.10;42.70
51476;DHT22;37554;50.362;7.568;2022-12-18T17:06:17;10.00;42.80
51476;DHT22;37554;50.362;7.568;2022-12-18T17:08:43;10.00;42.80
51476;DHT22;37554;50.362;7.568;2022-12-18T17:11:08;10.00;42.90
51476;DHT22;37554;50.362;7.568;2022-12-18T17:13:34;10.10;43.00
51476;DHT22;37554;50.362;7.568;2022-12-18T17:16:04;10.10;43.10
51476;DHT22;37554;50.362;7.568;2022-12-18T17:18:31;10.10;42.70
51476;DHT22;37554;50.362;7.568;2022-12-18T17:21:01;10.10;42.50
51476;DHT22;37554;50.362;7.568;2022-12-18T17:23:28;10.20;42.60
51476;DHT22;37554;50.362;7.568;2022-12-18T17:25:55;10.20;42.70
51476;DHT22;37554;50.362;7.568;2022-12-18T17:28:22;10.20;42.50
51476;DHT22;37554;50.362;7.568;2022-12-18T17:30:48;10.20;42.60
51476;DHT22;37554;50.362;7.568;2022-12-18T17:33:13;10.20;42.40
51476;DHT22;37554;50.362;7.568;2022-12-18T17:35:39;10.20;42.20